Time;durP1;ratioP1;P1;durP2;ratioP2;P2;SDS_P1;SDS_P2;PMS_P1;PMS_P2;Temp;Humidity;BMP_temperature;BMP_pressure;BME280_temperature;BME280_humidity;BME280_pressure;Samples;Min_cycle;Max_cycle;Signal;HPM_P1;HPM_P2
2023/10/04 00:01:16;;;;;;;12.52;3.20;;;;;;;;;;4972955;28;20228;-51
2023/10/04 00:03:43;;;;;;;13.77;3.75;;;;;;;;;;4973834;28;20686;-51
2023/10/04 00:06:09;;;;;;;2.40;0.73;;;;;;;;;;4975311;28;20041;-50
2023/10/04 00:08:36;;;;;;;2.45;0.77;;;;;;;;;;4973631;28;20038;-53
2023/10/04 00:11:04;;;;;;;11.93;3.92;;;;;;;;;;4973436;28;20050;-51
2023/10/04 00:13:33;;;;;;;17.08;4.13;;;;;;;;;;4980206;28;20133;-52
2023/10/04 00:15:59;;;;;;;10.68;3.17;;;;;;;;;;4973699;28;20045;-51
2023/10/04 00:18:25;;;;;;;11.07;3.28;;;;;;;;;;4972349;28;20498;-51
2023/10/04 00:20:51;;;;;;;16.10;4.03;;;;;;;;;;4973373;28;20469;-53
2023/10/04 00:23:18;;;;;;;13.32;3.40;;;;;;;;;;4972652;28;20030;-50
2023/10/04 00:25:44;;;;;;;11.85;3.30;;;;;;;;;;4973565;28;20065;-52
2023/10/04 00:28:10;;;;;;;11.52;3.38;;;;;;;;;;4972727;28;20502;-54
2023/10/04 00:30:36;;;;;;;8.50;3.00;;;;;;;;;;4973003;28;20034;-52
2023/10/04 00:33:04;;;;;;;10.48;3.17;;;;;;;;;;4972587;28;20442;-51
2023/10/04 00:35:30;;;;;;;12.07;3.67;;;;;;;;;;4973427;28;20034;-50
2023/10/04 00:37:57;;;;;;;16.85;3.38;;;;;;;;;;4973572;28;20096;-51
2023/10/04 00:40:27;;;;;;;13.07;3.47;;;;;;;;;;4973092;28;20646;-48
2023/10/04 00:42:55;;;;;;;12.77;3.00;;;;;;;;;;4973726;28;20552;-52
2023/10/04 00:45:22;;;;;;;13.10;3.67;;;;;;;;;;4973425;28;20046;-50
2023/10/04 00:47:53;;;;;;;10.85;3.30;;;;;;;;;;4973555;28;20027;-53
2023/10/04 00:50:25;;;;;;;14.80;3.40;;;;;;;;;;4969123;28;20027;-53
2023/10/04 00:53:11;;;;;;;11.87;3.40;;;;;;;;;;4973736;28;20126;-49
2023/10/04 00:55:40;;;;;;;14.95;3.60;;;;;;;;;;4979486;28;20033;-53
2023/10/04 00:58:07;;;;;;;9.07;3.40;;;;;;;;;;4971365;28;20360;-53
2023/10/04 01:00:33;;;;;;;12.98;3.00;;;;;;;;;;4973097;28;20054;-52
2023/10/04 01:02:59;;;;;;;10.55;3.13;;;;;;;;;;4972572;28;20180;-53
2023/10/04 01:05:27;;;;;;;15.05;3.30;;;;;;;;;;4972285;28;20034;-52
2023/10/04 01:07:54;;;;;;;13.45;3.40;;;;;;;;;;4973398;28;20022;-53
2023/10/04 01:10:30;;;;;;;15.35;3.10;;;;;;;;;;4971698;28;20041;-52
2023/10/04 01:12:57;;;;;;;13.45;3.00;;;;;;;;;;4972753;28;20057;-51
2023/10/04 01:15:30;;;;;;;10.60;2.97;;;;;;;;;;4971756;28;20147;-51
2023/10/04 01:17:57;;;;;;;14.23;3.50;;;;;;;;;;4973458;28;20556;-48
2023/10/04 01:20:24;;;;;;;12.10;3.10;;;;;;;;;;4972217;28;20035;-50
2023/10/04 01:22:51;;;;;;;10.38;2.97;;;;;;;;;;4973040;28;20047;-48
2023/10/04 01:25:18;;;;;;;19.83;3.33;;;;;;;;;;4970543;28;20176;-51
2023/10/04 01:27:45;;;;;;;15.32;3.42;;;;;;;;;;4975263;28;20041;-51
2023/10/04 01:30:13;;;;;;;15.07;3.20;;;;;;;;;;4988985;28;20225;-50
2023/10/04 01:32:39;;;;;;;13.57;3.95;;;;;;;;;;4976667;28;20125;-51
2023/10/04 01:35:08;;;;;;;12.65;3.22;;;;;;;;;;4975171;28;20033;-50
2023/10/04 01:37:38;;;;;;;12.25;3.20;;;;;;;;;;4976653;28;20447;-50
2023/10/04 01:40:08;;;;;;;14.80;3.58;;;;;;;;;;4975671;28;20038;-51
2023/10/04 01:42:38;;;;;;;17.17;4.03;;;;;;;;;;4976519;28;20843;-52
2023/10/04 01:45:06;;;;;;;16.35;4.03;;;;;;;;;;4975859;28;20697;-52
2023/10/04 01:47:32;;;;;;;12.52;3.17;;;;;;;;;;4976174;28;20116;-54
2023/10/04 01:49:58;;;;;;;12.52;3.60;;;;;;;;;;4976407;28;20026;-53
2023/10/04 01:52:24;;;;;;;9.35;3.03;;;;;;;;;;4975136;28;20030;-52
2023/10/04 01:54:51;;;;;;;14.32;3.30;;;;;;;;;;4976510;28;20510;-55
2023/10/04 01:57:18;;;;;;;12.82;3.53;;;;;;;;;;4975116;28;20089;-55
2023/10/04 01:59:44;;;;;;;12.90;3.35;;;;;;;;;;4984518;28;20149;-55
2023/10/04 02:02:10;;;;;;;16.42;3.80;;;;;;;;;;4974939;28;20114;-54
2023/10/04 02:04:37;;;;;;;15.38;3.65;;;;;;;;;;4975886;28;20083;-52
2023/10/04 02:07:03;;;;;;;17.40;3.22;;;;;;;;;;4975294;28;20105;-52
2023/10/04 02:09:29;;;;;;;9.93;2.97;;;;;;;;;;4975689;28;20073;-51
2023/10/04 02:11:55;;;;;;;15.57;3.58;;;;;;;;;;4976379;28;20133;-52
2023/10/04 02:14:21;;;;;;;15.18;3.28;;;;;;;;;;4974921;28;20117;-53
2023/10/04 02:16:49;;;;;;;16.48;3.53;;;;;;;;;;4975649;28;20042;-55
2023/10/04 02:19:15;;;;;;;16.98;3.47;;;;;;;;;;4974751;28;20480;-54
2023/10/04 02:21:41;;;;;;;14.85;3.58;;;;;;;;;;4976160;28;20046;-54
2023/10/04 02:24:09;;;;;;;15.35;3.63;;;;;;;;;;4975094;28;20195;-56
2023/10/04 02:26:35;;;;;;;15.35;4.18;;;;;;;;;;4976040;28;20030;-53
2023/10/04 02:29:04;;;;;;;14.98;3.20;;;;;;;;;;4975323;28;20026;-53
2023/10/04 02:31:30;;;;;;;15.02;3.33;;;;;;;;;;4987661;28;20101;-56
2023/10/04 02:33:57;;;;;;;18.95;3.78;;;;;;;;;;4975950;28;20046;-52
2023/10/04 02:36:23;;;;;;;17.83;3.50;;;;;;;;;;4974946;28;20197;-54
2023/10/04 02:38:50;;;;;;;15.00;3.70;;;;;;;;;;4975754;28;20102;-51
2023/10/04 02:41:16;;;;;;;12.98;3.80;;;;;;;;;;4974215;28;20037;-54
2023/10/04 02:43:42;;;;;;;13.65;3.78;;;;;;;;;;4975078;28;20042;-56
2023/10/04 02:46:10;;;;;;;16.55;3.40;;;;;;;;;;5000038;28;20030;-55
2023/10/04 02:48:36;;;;;;;14.93;4.20;;;;;;;;;;4990374;28;20891;-53
2023/10/04 02:51:04;;;;;;;15.93;3.42;;;;;;;;;;4974551;28;20041;-54
2023/10/04 02:53:30;;;;;;;14.98;3.72;;;;;;;;;;4974948;28;20199;-53
2023/10/04 02:55:57;;;;;;;15.82;3.63;;;;;;;;;;4975139;28;20042;-54
2023/10/04 02:58:24;;;;;;;17.45;4.00;;;;;;;;;;4974138;28;20045;-53
2023/10/04 03:00:50;;;;;;;16.20;3.53;;;;;;;;;;4974657;28;20049;-54
2023/10/04 03:03:22;;;;;;;16.60;4.00;;;;;;;;;;4973671;28;20069;-55
2023/10/04 03:05:48;;;;;;;13.55;3.70;;;;;;;;;;4975068;28;20049;-51
2023/10/04 03:08:17;;;;;;;18.33;3.33;;;;;;;;;;4974210;28;20034;-49
2023/10/04 03:10:44;;;;;;;13.63;3.53;;;;;;;;;;4974618;28;20097;-51
2023/10/04 03:13:22;;;;;;;19.70;3.60;;;;;;;;;;4973894;28;20030;-52
2023/10/04 03:15:50;;;;;;;16.65;3.83;;;;;;;;;;4975133;28;20454;-55
2023/10/04 03:18:20;;;;;;;11.77;3.70;;;;;;;;;;4973847;28;20680;-54
2023/10/04 03:23:26;;;;;;;13.93;3.35;;;;;;;;;;4973296;28;20085;-56
2023/10/04 03:25:53;;;;;;;9.85;3.42;;;;;;;;;;4974497;28;20121;-55
2023/10/04 03:28:26;;;;;;;15.45;3.22;;;;;;;;;;4973954;28;20084;-53
2023/10/04 03:30:52;;;;;;;29.50;4.43;;;;;;;;;;4975021;28;20073;-54
2023/10/04 03:33:19;;;;;;;16.63;4.05;;;;;;;;;;4973517;28;20118;-54
2023/10/04 03:35:47;;;;;;;18.20;4.18;;;;;;;;;;4974312;28;20112;-54
2023/10/04 03:38:13;;;;;;;13.52;3.60;;;;;;;;;;4973328;28;20683;-53
2023/10/04 03:40:39;;;;;;;15.77;3.40;;;;;;;;;;4974177;28;20030;-54
2023/10/04 03:43:06;;;;;;;20.00;3.78;;;;;;;;;;4973571;28;20062;-53
2023/10/04 03:45:39;;;;;;;16.55;3.85;;;;;;;;;;4986903;28;20037;-53
2023/10/04 03:48:05;;;;;;;14.57;3.80;;;;;;;;;;4975375;28;20027;-56
2023/10/04 03:50:31;;;;;;;15.10;3.60;;;;;;;;;;4974127;28;20302;-54
2023/10/04 03:52:57;;;;;;;24.52;4.20;;;;;;;;;;4974389;28;20306;-54
2023/10/04 03:55:25;;;;;;;17.38;3.58;;;;;;;;;;4970787;28;20664;-54
2023/10/04 03:57:51;;;;;;;16.48;3.83;;;;;;;;;;4974169;28;20597;-54
2023/10/04 04:00:19;;;;;;;16.75;3.80;;;;;;;;;;4972779;28;20031;-52
2023/10/04 04:02:45;;;;;;;13.98;3.35;;;;;;;;;;4973711;28;20102;-54
2023/10/04 04:05:14;;;;;;;20.52;4.35;;;;;;;;;;4973082;28;20122;-55
2023/10/04 04:07:40;;;;;;;20.17;3.28;;;;;;;;;;4977088;28;20040;-54
2023/10/04 04:10:07;;;;;;;14.13;3.70;;;;;;;;;;4974096;28;20035;-56
2023/10/04 04:12:34;;;;;;;15.82;3.10;;;;;;;;;;4973906;28;20558;-54
2023/10/04 04:15:01;;;;;;;21.50;3.97;;;;;;;;;;4973772;28;20062;-53
2023/10/04 04:17:27;;;;;;;12.98;3.20;;;;;;;;;;4972869;28;20034;-53
2023/10/04 04:19:53;;;;;;;9.55;3.15;;;;;;;;;;4973716;28;20602;-54
2023/10/04 04:22:23;;;;;;;0.00;0.00;;;;;;;;;;4973119;28;20018;-53
2023/10/04 04:24:53;;;;;;;0.00;0.00;;;;;;;;;;4972476;28;20034;-53
2023/10/04 04:27:22;;;;;;;13.75;3.72;;;;;;;;;;4973095;28;20069;-48
2023/10/04 04:29:52;;;;;;;13.20;3.08;;;;;;;;;;4973541;28;20034;-53
2023/10/04 04:32:26;;;;;;;20.95;3.38;;;;;;;;;;4973253;28;20505;-49
2023/10/04 04:34:53;;;;;;;20.00;3.63;;;;;;;;;;4973738;28;20041;-50
2023/10/04 04:37:19;;;;;;;20.75;3.90;;;;;;;;;;4972748;28;20074;-49
2023/10/04 04:39:45;;;;;;;17.77;3.97;;;;;;;;;;4973399;28;20173;-50
2023/10/04 04:42:12;;;;;;;17.15;3.83;;;;;;;;;;4971983;28;20134;-51
2023/10/04 04:44:42;;;;;;;11.52;2.97;;;;;;;;;;4973337;28;20058;-53
2023/10/04 04:47:10;;;;;;;16.40;3.38;;;;;;;;;;4972595;28;20046;-54
2023/10/04 04:49:37;;;;;;;12.38;3.90;;;;;;;;;;4973372;28;20409;-54
2023/10/04 04:52:05;;;;;;;26.08;3.88;;;;;;;;;;4972288;28;20038;-54
2023/10/04 04:54:33;;;;;;;13.32;3.88;;;;;;;;;;4972710;28;20034;-54
2023/10/04 04:57:00;;;;;;;16.33;3.65;;;;;;;;;;4973280;28;20121;-51
2023/10/04 04:59:26;;;;;;;13.73;3.33;;;;;;;;;;4973790;28;20030;-54
2023/10/04 05:01:55;;;;;;;15.45;3.83;;;;;;;;;;4976820;28;20030;-53
2023/10/04 05:04:22;;;;;;;18.90;3.63;;;;;;;;;;4966523;28;20868;-54
2023/10/04 05:06:49;;;;;;;16.75;4.15;;;;;;;;;;4977255;28;20034;-56
2023/10/04 05:09:17;;;;;;;15.73;3.58;;;;;;;;;;4976387;28;20275;-53
2023/10/04 05:11:44;;;;;;;17.80;3.72;;;;;;;;;;4976908;28;20038;-54
2023/10/04 05:14:11;;;;;;;12.95;3.80;;;;;;;;;;4975936;28;20037;-54
2023/10/04 05:16:37;;;;;;;14.68;3.47;;;;;;;;;;4976850;28;20027;-55
2023/10/04 05:19:13;;;;;;;18.05;3.92;;;;;;;;;;4976071;28;20070;-53
2023/10/04 05:21:39;;;;;;;15.75;3.63;;;;;;;;;;4976965;28;20549;-56
2023/10/04 05:24:05;;;;;;;16.48;3.25;;;;;;;;;;4976070;28;20430;-56
2023/10/04 05:26:32;;;;;;;14.90;3.78;;;;;;;;;;4976449;28;20625;-55
2023/10/04 05:29:00;;;;;;;12.40;3.75;;;;;;;;;;4976534;28;20062;-54
2023/10/04 05:31:26;;;;;;;18.60;4.38;;;;;;;;;;4976002;28;20045;-54
2023/10/04 05:33:52;;;;;;;20.10;4.18;;;;;;;;;;4976890;28;20026;-54
2023/10/04 05:36:18;;;;;;;15.73;3.80;;;;;;;;;;4975373;28;20548;-55
2023/10/04 05:38:44;;;;;;;16.85;4.10;;;;;;;;;;4976844;28;20113;-53
2023/10/04 05:41:10;;;;;;;17.90;3.95;;;;;;;;;;4975088;28;20046;-53
2023/10/04 05:43:36;;;;;;;18.95;4.13;;;;;;;;;;4976770;28;20038;-55
2023/10/04 05:46:04;;;;;;;17.77;3.70;;;;;;;;;;4998106;28;20041;-53
2023/10/04 05:48:30;;;;;;;18.17;3.85;;;;;;;;;;4976192;28;20030;-54
2023/10/04 05:50:58;;;;;;;18.33;3.72;;;;;;;;;;4976515;28;20054;-53
2023/10/04 05:53:26;;;;;;;17.92;4.45;;;;;;;;;;4975510;28;20196;-53
2023/10/04 05:55:52;;;;;;;17.92;3.90;;;;;;;;;;4976731;28;20035;-53
2023/10/04 05:58:21;;;;;;;16.05;3.47;;;;;;;;;;4974312;28;20128;-53
2023/10/04 06:00:52;;;;;;;25.17;4.15;;;;;;;;;;4976292;28;20109;-54
2023/10/04 06:03:18;;;;;;;17.63;4.10;;;;;;;;;;4975010;28;20104;-55
2023/10/04 06:05:44;;;;;;;17.58;4.30;;;;;;;;;;4975543;28;20077;-52
2023/10/04 06:08:19;;;;;;;18.33;3.92;;;;;;;;;;4975519;28;20105;-53
2023/10/04 06:10:47;;;;;;;13.77;3.65;;;;;;;;;;4975133;28;20061;-51
2023/10/04 06:13:13;;;;;;;18.45;3.50;;;;;;;;;;4975211;28;20664;-53
2023/10/04 06:15:40;;;;;;;14.32;3.80;;;;;;;;;;4975802;28;20104;-51
2023/10/04 06:18:07;;;;;;;20.20;3.70;;;;;;;;;;4975455;28;20038;-52
2023/10/04 06:20:36;;;;;;;21.83;5.05;;;;;;;;;;4975663;28;20639;-54
2023/10/04 06:23:05;;;;;;;25.02;4.00;;;;;;;;;;4975924;28;20109;-54
2023/10/04 06:25:31;;;;;;;15.73;3.72;;;;;;;;;;4983117;28;20038;-54
2023/10/04 06:27:58;;;;;;;21.92;4.43;;;;;;;;;;4976166;28;20129;-53
2023/10/04 06:30:28;;;;;;;17.13;4.30;;;;;;;;;;4974728;28;20036;-53
2023/10/04 06:32:55;;;;;;;18.38;3.72;;;;;;;;;;4975787;28;20358;-54
2023/10/04 06:35:25;;;;;;;19.42;4.18;;;;;;;;;;4974848;28;20039;-54
2023/10/04 06:37:51;;;;;;;20.40;4.20;;;;;;;;;;4975841;28;20785;-54
2023/10/04 06:40:19;;;;;;;14.80;3.72;;;;;;;;;;4974408;28;20033;-54
2023/10/04 06:42:46;;;;;;;17.40;3.92;;;;;;;;;;4975154;28;20134;-53
2023/10/04 06:45:13;;;;;;;18.00;3.55;;;;;;;;;;4992997;28;20041;-54
2023/10/04 06:47:44;;;;;;;16.45;4.10;;;;;;;;;;4994929;28;20067;-51
2023/10/04 06:50:13;;;;;;;24.13;4.78;;;;;;;;;;4976336;28;20030;-54
2023/10/04 06:52:39;;;;;;;22.13;4.45;;;;;;;;;;4974741;28;20038;-52
2023/10/04 06:55:08;;;;;;;15.15;4.43;;;;;;;;;;4974084;28;20152;-52
2023/10/04 06:57:34;;;;;;;15.00;4.18;;;;;;;;;;4975136;28;20058;-50
2023/10/04 07:00:00;;;;;;;18.85;4.25;;;;;;;;;;4975202;28;20167;-50
2023/10/04 07:02:26;;;;;;;21.65;4.75;;;;;;;;;;4974457;28;20271;-51
2023/10/04 07:04:52;;;;;;;24.05;4.72;;;;;;;;;;4974381;28;20049;-53
2023/10/04 07:07:18;;;;;;;21.20;4.43;;;;;;;;;;4973952;28;20560;-54
2023/10/04 07:09:46;;;;;;;20.92;4.32;;;;;;;;;;4974774;28;20030;-54
2023/10/04 07:12:12;;;;;;;20.35;4.60;;;;;;;;;;4974080;28;20042;-54
2023/10/04 07:14:38;;;;;;;19.27;5.13;;;;;;;;;;4974317;28;20656;-50
2023/10/04 07:17:04;;;;;;;20.83;4.65;;;;;;;;;;4972971;28;20259;-49
2023/10/04 07:19:30;;;;;;;19.52;4.70;;;;;;;;;;4974771;28;20132;-51
2023/10/04 07:21:57;;;;;;;15.90;4.28;;;;;;;;;;4974550;28;20042;-49
2023/10/04 07:24:23;;;;;;;17.55;4.15;;;;;;;;;;4973222;28;20441;-52
2023/10/04 07:26:55;;;;;;;17.90;4.55;;;;;;;;;;4973926;28;20046;-53
2023/10/04 07:29:21;;;;;;;23.67;4.72;;;;;;;;;;4976551;28;21420;-52
2023/10/04 07:31:48;;;;;;;20.27;4.43;;;;;;;;;;4983947;28;20752;-51
2023/10/04 07:34:14;;;;;;;22.35;4.65;;;;;;;;;;4973755;28;20976;-48
2023/10/04 07:36:42;;;;;;;19.98;4.05;;;;;;;;;;4974187;28;20046;-48
2023/10/04 07:39:08;;;;;;;23.05;4.55;;;;;;;;;;4968084;28;20042;-51
2023/10/04 07:41:34;;;;;;;17.70;4.38;;;;;;;;;;4972446;28;20038;-48
2023/10/04 07:44:00;;;;;;;15.52;4.30;;;;;;;;;;4973873;28;20509;-52
2023/10/04 07:46:26;;;;;;;18.70;4.30;;;;;;;;;;5001475;28;20056;-51
2023/10/04 07:48:53;;;;;;;20.73;4.47;;;;;;;;;;4986509;28;20046;-51
2023/10/04 07:51:19;;;;;;;22.60;4.00;;;;;;;;;;4973283;28;20042;-48
2023/10/04 07:53:46;;;;;;;16.45;4.22;;;;;;;;;;4974135;28;20034;-52
2023/10/04 07:56:12;;;;;;;15.88;3.90;;;;;;;;;;4971106;28;20647;-49
2023/10/04 07:58:38;;;;;;;18.17;4.43;;;;;;;;;;4973856;28;20026;-50
2023/10/04 08:01:04;;;;;;;16.23;4.40;;;;;;;;;;4970847;28;20465;-48
2023/10/04 08:03:30;;;;;;;21.35;4.65;;;;;;;;;;4973212;28;20043;-52
2023/10/04 08:05:56;;;;;;;17.27;4.28;;;;;;;;;;4973995;28;20030;-48
2023/10/04 08:08:22;;;;;;;17.77;4.72;;;;;;;;;;4973397;28;20050;-49
2023/10/04 08:10:49;;;;;;;20.27;5.07;;;;;;;;;;4973567;28;20076;-53
2023/10/04 08:13:16;;;;;;;21.48;4.40;;;;;;;;;;4973076;28;20034;-51
2023/10/04 08:15:42;;;;;;;15.50;4.40;;;;;;;;;;4974064;28;20060;-50
2023/10/04 08:18:08;;;;;;;21.55;4.75;;;;;;;;;;4973242;28;20065;-51
2023/10/04 08:20:36;;;;;;;21.58;4.32;;;;;;;;;;4974213;28;20026;-51
2023/10/04 08:23:02;;;;;;;21.75;4.78;;;;;;;;;;4972340;28;20827;-51
2023/10/04 08:25:28;;;;;;;20.80;4.80;;;;;;;;;;4973694;28;20031;-52
2023/10/04 08:27:55;;;;;;;19.95;4.22;;;;;;;;;;4973562;28;20603;-50
2023/10/04 08:30:21;;;;;;;19.00;4.78;;;;;;;;;;4972610;28;20030;-52
2023/10/04 08:32:48;;;;;;;25.58;5.00;;;;;;;;;;4972913;28;20185;-51
2023/10/04 08:35:24;;;;;;;16.90;4.45;;;;;;;;;;4970575;28;20060;-50
2023/10/04 08:37:55;;;;;;;22.08;5.47;;;;;;;;;;4972989;28;20092;-52
2023/10/04 08:40:22;;;;;;;18.00;4.40;;;;;;;;;;4956873;28;20033;-50
2023/10/04 08:42:50;;;;;;;16.52;4.68;;;;;;;;;;4973251;28;20117;-49
2023/10/04 08:45:17;;;;;;;25.38;5.03;;;;;;;;;;4990978;28;20247;-49
2023/10/04 08:47:50;;;;;;;20.13;5.20;;;;;;;;;;4987038;28;20038;-51
2023/10/04 08:50:19;;;;;;;22.13;5.22;;;;;;;;;;4972104;28;20038;-48
2023/10/04 08:52:46;;;;;;;21.65;4.97;;;;;;;;;;4972963;28;20706;-49
2023/10/04 08:55:16;;;;;;;19.17;5.57;;;;;;;;;;4971279;28;20088;-53
2023/10/04 08:57:43;;;;;;;19.77;4.10;;;;;;;;;;4972951;28;20030;-52
2023/10/04 09:00:18;;;;;;;22.88;4.82;;;;;;;;;;4971758;28;20190;-52
2023/10/04 09:02:45;;;;;;;21.77;5.00;;;;;;;;;;4973527;28;20053;-49
2023/10/04 09:05:23;;;;;;;22.90;4.95;;;;;;;;;;4971066;28;20487;-51
2023/10/04 09:07:50;;;;;;;26.17;5.18;;;;;;;;;;4969426;28;20038;-50
2023/10/04 09:10:17;;;;;;;21.27;4.63;;;;;;;;;;4972068;28;20828;-52
2023/10/04 09:12:44;;;;;;;20.77;4.28;;;;;;;;;;4972683;28;20230;-51
2023/10/04 09:15:13;;;;;;;19.38;5.53;;;;;;;;;;4971914;28;20109;-50
2023/10/04 09:17:56;;;;;;;25.88;4.47;;;;;;;;;;4972163;28;20537;-52
2023/10/04 09:20:26;;;;;;;19.83;4.45;;;;;;;;;;4969655;28;20079;-53
2023/10/04 09:22:53;;;;;;;19.38;4.55;;;;;;;;;;4972755;28;20121;-50
2023/10/04 09:25:20;;;;;;;21.30;4.70;;;;;;;;;;4969928;28;20065;-49
2023/10/04 09:27:56;;;;;;;18.70;4.07;;;;;;;;;;4970309;28;20039;-51
2023/10/04 09:30:27;;;;;;;21.25;4.30;;;;;;;;;;4986755;28;20043;-52
2023/10/04 09:32:53;;;;;;;17.75;4.40;;;;;;;;;;4972549;28;20571;-50
2023/10/04 09:35:20;;;;;;;22.27;4.38;;;;;;;;;;4972007;28;20286;-52
2023/10/04 09:37:49;;;;;;;15.73;4.20;;;;;;;;;;4971285;28;20052;-51
2023/10/04 09:40:17;;;;;;;18.02;4.28;;;;;;;;;;4971305;28;20069;-50
2023/10/04 09:42:49;;;;;;;18.95;4.50;;;;;;;;;;4972778;28;20038;-52
2023/10/04 09:45:15;;;;;;;13.88;4.22;;;;;;;;;;4971970;28;20687;-51
2023/10/04 09:47:42;;;;;;;18.60;4.40;;;;;;;;;;4975958;28;20038;-54
2023/10/04 09:50:19;;;;;;;18.13;4.45;;;;;;;;;;4974724;28;20074;-53
2023/10/04 09:52:45;;;;;;;19.42;4.03;;;;;;;;;;4976174;28;20034;-52
2023/10/04 09:55:13;;;;;;;18.05;3.83;;;;;;;;;;4975219;28;20719;-55
2023/10/04 09:57:42;;;;;;;20.38;4.53;;;;;;;;;;4975545;28;20045;-55
2023/10/04 10:00:17;;;;;;;18.88;4.38;;;;;;;;;;4975319;28;20639;-56
2023/10/04 10:02:46;;;;;;;16.58;4.22;;;;;;;;;;4978631;28;20506;-54
2023/10/04 10:05:13;;;;;;;16.63;3.70;;;;;;;;;;4975460;28;20509;-55
2023/10/04 10:07:41;;;;;;;16.45;4.15;;;;;;;;;;4975776;28;20134;-53
2023/10/04 10:10:16;;;;;;;17.83;3.90;;;;;;;;;;4975322;28;20038;-56
2023/10/04 10:12:43;;;;;;;16.05;4.30;;;;;;;;;;4976018;28;20322;-54
2023/10/04 10:15:11;;;;;;;25.85;4.78;;;;;;;;;;4975054;28;20039;-56
2023/10/04 10:17:38;;;;;;;19.23;3.83;;;;;;;;;;4975884;28;20030;-56
2023/10/04 10:20:09;;;;;;;15.85;4.05;;;;;;;;;;4974711;28;20037;-56
2023/10/04 10:22:35;;;;;;;9.45;3.65;;;;;;;;;;4975387;28;20104;-57
2023/10/04 10:25:03;;;;;;;14.73;3.70;;;;;;;;;;4975180;28;20657;-56
2023/10/04 10:27:30;;;;;;;19.23;3.78;;;;;;;;;;4975341;28;20734;-54
2023/10/04 10:30:03;;;;;;;14.02;3.63;;;;;;;;;;4989508;28;20040;-55
2023/10/04 10:32:29;;;;;;;;;;;;;;;;;;4991231;28;20302;-56
2023/10/04 10:34:58;;;;;;;15.02;3.50;;;;;;;;;;4973714;28;19909;-56
2023/10/04 10:37:25;;;;;;;22.63;4.15;;;;;;;;;;4974643;28;20042;-53
2023/10/04 10:39:52;;;;;;;16.35;4.32;;;;;;;;;;4975460;28;20775;-56
2023/10/04 10:42:19;;;;;;;17.98;4.20;;;;;;;;;;4974266;28;20537;-56
2023/10/04 10:44:45;;;;;;;18.90;3.75;;;;;;;;;;4981958;28;20045;-56
2023/10/04 10:47:25;;;;;;;15.95;3.55;;;;;;;;;;4984393;28;20030;-54
2023/10/04 10:50:02;;;;;;;14.88;3.97;;;;;;;;;;4975495;28;20065;-55
2023/10/04 10:52:28;;;;;;;15.32;4.18;;;;;;;;;;4984843;28;20042;-53
2023/10/04 10:54:56;;;;;;;12.80;3.65;;;;;;;;;;4994818;28;20034;-56
2023/10/04 10:57:23;;;;;;;12.85;3.80;;;;;;;;;;4992967;28;20045;-55
2023/10/04 10:59:50;;;;;;;15.05;3.70;;;;;;;;;;4994856;28;20040;-57
2023/10/04 11:02:16;;;;;;;19.33;4.00;;;;;;;;;;4993271;28;20083;-55
2023/10/04 11:04:42;;;;;;;13.38;3.40;;;;;;;;;;4995060;28;20042;-51
2023/10/04 11:07:08;;;;;;;14.07;3.60;;;;;;;;;;4992569;28;20042;-52
2023/10/04 11:09:42;;;;;;;16.88;3.63;;;;;;;;;;4994516;28;20042;-54
2023/10/04 11:12:08;;;;;;;14.88;3.50;;;;;;;;;;4993319;28;20661;-54
2023/10/04 11:14:37;;;;;;;14.18;4.00;;;;;;;;;;4994637;28;20038;-54
2023/10/04 11:17:04;;;;;;;16.33;4.22;;;;;;;;;;4993318;28;20537;-55
2023/10/04 11:19:34;;;;;;;16.45;4.40;;;;;;;;;;4993554;28;20129;-56
2023/10/04 11:22:00;;;;;;;24.38;4.63;;;;;;;;;;4994294;28;20498;-54
2023/10/04 11:24:27;;;;;;;15.63;4.15;;;;;;;;;;4973852;28;20042;-55
2023/10/04 11:26:59;;;;;;;16.05;4.43;;;;;;;;;;4974508;28;20106;-56
2023/10/04 11:29:27;;;;;;;19.07;4.53;;;;;;;;;;4972605;28;20046;-56
2023/10/04 11:31:53;;;;;;;16.30;4.22;;;;;;;;;;4974183;28;20046;-55
2023/10/04 11:34:19;;;;;;;15.50;4.47;;;;;;;;;;4973104;28;20046;-54
2023/10/04 11:36:47;;;;;;;14.23;4.30;;;;;;;;;;4972756;28;20027;-55
2023/10/04 11:39:18;;;;;;;17.55;4.63;;;;;;;;;;4973087;28;20699;-55
2023/10/04 11:41:46;;;;;;;13.55;3.50;;;;;;;;;;4974141;28;20030;-54
2023/10/04 11:44:13;;;;;;;15.15;3.90;;;;;;;;;;4973125;28;20058;-56
2023/10/04 11:46:55;;;;;;;16.38;4.00;;;;;;;;;;4974134;28;20513;-55
2023/10/04 11:49:21;;;;;;;17.92;4.05;;;;;;;;;;4973146;28;20033;-54
2023/10/04 11:51:50;;;;;;;16.02;4.00;;;;;;;;;;4973655;28;20391;-56
2023/10/04 11:54:16;;;;;;;13.75;4.28;;;;;;;;;;4972437;28;20505;-54
2023/10/04 11:56:42;;;;;;;15.55;4.35;;;;;;;;;;4972729;28;20035;-53
2023/10/04 11:59:08;;;;;;;16.40;4.47;;;;;;;;;;4971826;28;20038;-55
2023/10/04 12:01:47;;;;;;;15.52;3.95;;;;;;;;;;4973615;28;20189;-57
2023/10/04 12:04:14;;;;;;;13.48;4.15;;;;;;;;;;4971684;28;20050;-55
2023/10/04 12:06:41;;;;;;;15.82;4.05;;;;;;;;;;4973853;28;20121;-58
2023/10/04 12:09:08;;;;;;;14.98;4.30;;;;;;;;;;4971996;28;20755;-54
2023/10/04 12:11:35;;;;;;;13.88;4.05;;;;;;;;;;4974191;28;20486;-55
2023/10/04 12:14:05;;;;;;;18.80;4.28;;;;;;;;;;4973482;28;20817;-55
2023/10/04 12:16:36;;;;;;;15.68;4.28;;;;;;;;;;4980929;28;20034;-55
2023/10/04 12:19:03;;;;;;;12.15;4.43;;;;;;;;;;4972515;28;20482;-55
2023/10/04 12:21:29;;;;;;;10.80;3.72;;;;;;;;;;4973137;28;20108;-56
2023/10/04 12:23:55;;;;;;;16.58;4.63;;;;;;;;;;4973468;28;20101;-53
2023/10/04 12:26:23;;;;;;;14.98;4.00;;;;;;;;;;4972799;28;20038;-55
2023/10/04 12:28:50;;;;;;;15.50;4.20;;;;;;;;;;4973587;28;20041;-52
2023/10/04 12:31:16;;;;;;;13.57;4.65;;;;;;;;;;4972083;28;20153;-55
2023/10/04 12:33:42;;;;;;;21.35;5.43;;;;;;;;;;4973491;28;20042;-53
2023/10/04 12:36:09;;;;;;;15.10;4.20;;;;;;;;;;4972691;28;20034;-55
2023/10/04 12:38:36;;;;;;;17.73;5.00;;;;;;;;;;4972949;28;20642;-54
2023/10/04 12:41:02;;;;;;;17.52;4.93;;;;;;;;;;4972432;28;20628;-49
2023/10/04 12:43:28;;;;;;;16.65;4.43;;;;;;;;;;4972909;28;20041;-53
2023/10/04 12:45:54;;;;;;;14.07;4.55;;;;;;;;;;4973389;28;20142;-52
2023/10/04 12:48:20;;;;;;;17.58;4.70;;;;;;;;;;4972120;28;20031;-53
2023/10/04 12:50:47;;;;;;;15.38;4.88;;;;;;;;;;4973407;28;20088;-52
2023/10/04 12:53:14;;;;;;;18.42;5.30;;;;;;;;;;4971618;28;20787;-54
2023/10/04 12:55:41;;;;;;;17.75;5.20;;;;;;;;;;4973406;28;20026;-52
2023/10/04 12:58:07;;;;;;;15.25;5.03;;;;;;;;;;4972102;28;20042;-53
2023/10/04 13:00:33;;;;;;;20.38;5.95;;;;;;;;;;4973031;28;20041;-53
2023/10/04 13:03:00;;;;;;;19.13;5.82;;;;;;;;;;4973033;28;20057;-52
2023/10/04 13:05:26;;;;;;;19.42;5.30;;;;;;;;;;4971179;28;20454;-54
2023/10/04 13:07:52;;;;;;;18.65;5.80;;;;;;;;;;4973395;28;20035;-53
2023/10/04 13:10:18;;;;;;;17.88;5.70;;;;;;;;;;4972206;28;20069;-54
2023/10/04 13:12:44;;;;;;;16.33;5.78;;;;;;;;;;4973606;28;20037;-51
2023/10/04 13:15:12;;;;;;;16.33;5.00;;;;;;;;;;4971598;28;20526;-54
2023/10/04 13:17:39;;;;;;;21.60;5.78;;;;;;;;;;4973175;28;20038;-53
2023/10/04 13:20:17;;;;;;;16.05;5.65;;;;;;;;;;4970865;28;20042;-54
2023/10/04 13:22:46;;;;;;;16.35;5.30;;;;;;;;;;4976652;28;20129;-53
2023/10/04 13:25:12;;;;;;;15.43;5.25;;;;;;;;;;4975696;28;20035;-54
2023/10/04 13:27:38;;;;;;;17.63;5.75;;;;;;;;;;4976731;28;20041;-55
2023/10/04 13:30:06;;;;;;;17.67;5.53;;;;;;;;;;4975681;28;20776;-54
2023/10/04 13:32:33;;;;;;;15.82;5.40;;;;;;;;;;4976868;28;20657;-54
2023/10/04 13:35:01;;;;;;;17.10;5.80;;;;;;;;;;4977024;28;20502;-54
2023/10/04 13:37:27;;;;;;;16.42;5.57;;;;;;;;;;4975159;28;20065;-55
2023/10/04 13:39:55;;;;;;;16.95;5.30;;;;;;;;;;4976485;28;20050;-54
2023/10/04 13:42:21;;;;;;;16.95;5.30;;;;;;;;;;4969684;28;20120;-55
2023/10/04 13:44:47;;;;;;;20.52;5.65;;;;;;;;;;4988671;28;20040;-55
2023/10/04 13:47:15;;;;;;;14.63;5.32;;;;;;;;;;4996672;28;20038;-53
2023/10/04 13:49:42;;;;;;;14.18;5.18;;;;;;;;;;4982732;28;20086;-56
2023/10/04 13:52:08;;;;;;;16.10;5.40;;;;;;;;;;4975449;28;20026;-55
2023/10/04 13:54:34;;;;;;;15.25;4.70;;;;;;;;;;4976324;28;20046;-56
2023/10/04 13:57:00;;;;;;;15.23;5.35;;;;;;;;;;4976204;28;20109;-55
2023/10/04 13:59:29;;;;;;;17.50;5.47;;;;;;;;;;4983330;28;20828;-56
2023/10/04 14:01:55;;;;;;;16.77;5.10;;;;;;;;;;4976507;28;20067;-56
2023/10/04 14:04:22;;;;;;;17.92;5.53;;;;;;;;;;4975697;28;20069;-54
2023/10/04 14:06:48;;;;;;;17.38;5.10;;;;;;;;;;4975390;28;20042;-54
2023/10/04 14:09:21;;;;;;;19.42;5.35;;;;;;;;;;4975095;28;20187;-56
2023/10/04 14:11:47;;;;;;;14.88;5.10;;;;;;;;;;4974469;28;20204;-57
2023/10/04 14:14:14;;;;;;;17.50;4.78;;;;;;;;;;4973497;28;20402;-57
2023/10/04 14:16:42;;;;;;;20.38;5.13;;;;;;;;;;4975843;28;20034;-56
2023/10/04 14:19:09;;;;;;;17.75;5.22;;;;;;;;;;4975022;28;20058;-57
2023/10/04 14:21:35;;;;;;;20.63;5.38;;;;;;;;;;4975462;28;20529;-56
2023/10/04 14:24:01;;;;;;;17.17;5.43;;;;;;;;;;4975526;28;20499;-56
2023/10/04 14:26:28;;;;;;;20.10;5.13;;;;;;;;;;4973846;28;20118;-56
2023/10/04 14:28:54;;;;;;;18.60;5.47;;;;;;;;;;4975270;28;20594;-55
2023/10/04 14:31:22;;;;;;;17.80;5.15;;;;;;;;;;4974066;28;20046;-56
2023/10/04 14:33:48;;;;;;;17.17;4.85;;;;;;;;;;4974838;28;20117;-54
2023/10/04 14:36:14;;;;;;;13.55;4.60;;;;;;;;;;4974317;28;20042;-57